Time;durP1;ratioP1;P1;durP2;ratioP2;P2;SDS_P1;SDS_P2;PMS_P1;PMS_P2;Temp;Humidity;BMP_temperature;BMP_pressure;BME280_temperature;BME280_humidity;BME280_pressure;Samples;Min_cycle;Max_cycle;Signal;HPM_P1;HPM_P2
2021/12/11 00:01:18;;;;;;;53.22;26.05;;;4.90;99.90;;;;;;5016703;28;20303;-89
2021/12/11 00:03:48;;;;;;;47.08;25.10;;;4.90;99.90;;;;;;5019991;28;20319;-90
2021/12/11 00:06:27;;;;;;;46.72;25.02;;;4.80;99.90;;;;;;5037830;28;20198;-89
2021/12/11 00:08:55;;;;;;;56.38;29.15;;;4.90;99.90;;;;;;5019841;28;20183;-89
2021/12/11 00:11:29;;;;;;;71.55;31.05;;;4.90;99.90;;;;;;5056841;28;20205;-90
2021/12/11 00:13:59;;;;;;;64.72;32.63;;;4.90;99.90;;;;;;5037080;28;20202;-89
2021/12/11 00:16:29;;;;;;;64.68;34.17;;;4.90;99.90;;;;;;5020272;28;20577;-92
2021/12/11 00:19:01;;;;;;;63.25;34.28;;;4.90;99.90;;;;;;5037637;28;20170;-91
2021/12/11 00:21:27;;;;;;;68.22;32.90;;;4.90;99.90;;;;;;5019986;28;20309;-89
2021/12/11 00:24:04;;;;;;;55.72;31.23;;;4.90;99.90;;;;;;5019723;28;20228;-90
2021/12/11 00:26:43;;;;;;;51.85;28.20;;;4.90;99.90;;;;;;5019858;28;20194;-91
2021/12/11 00:29:10;;;;;;;46.10;25.95;;;4.90;99.90;;;;;;5037523;28;20201;-89
2021/12/11 00:31:46;;;;;;;44.25;26.10;;;4.90;99.90;;;;;;5037260;28;20233;-91
2021/12/11 00:34:14;;;;;;;54.47;28.10;;;4.90;99.90;;;;;;5020341;28;20693;-89
2021/12/11 00:36:40;;;;;;;42.60;26.10;;;4.90;99.90;;;;;;5037418;28;20194;-91
2021/12/11 00:39:11;;;;;;;43.90;24.00;;;4.80;99.90;;;;;;5040442;28;20174;-91
2021/12/11 00:41:38;;;;;;;53.97;28.50;;;4.90;99.90;;;;;;5023972;28;20217;-89
2021/12/11 00:44:04;;;;;;;52.83;32.05;;;4.90;99.90;;;;;;5024152;28;20196;-91
2021/12/11 00:46:33;;;;;;;41.20;24.80;;;4.90;99.90;;;;;;5000767;28;20262;-91
2021/12/11 00:49:16;;;;;;;45.80;25.48;;;4.90;99.90;;;;;;4999237;28;20222;-89
2021/12/11 00:51:56;;;;;;;42.30;25.05;;;4.90;99.90;;;;;;4999762;28;20214;-89
2021/12/11 00:54:23;;;;;;;49.08;25.23;;;4.90;99.90;;;;;;4999901;28;20175;-91
2021/12/11 00:56:49;;;;;;;41.10;24.45;;;4.90;99.90;;;;;;5000075;28;20203;-89
2021/12/11 00:59:21;;;;;;;41.00;23.65;;;4.90;99.90;;;;;;4999231;28;20175;-90
2021/12/11 01:01:57;;;;;;;56.15;29.20;;;5.00;99.90;;;;;;4999739;28;20688;-92
2021/12/11 01:04:31;;;;;;;53.45;28.13;;;4.90;99.90;;;;;;5002771;28;20242;-90
2021/12/11 01:07:00;;;;;;;51.20;25.63;;;4.90;99.90;;;;;;5009021;28;20184;-89
2021/12/11 01:09:54;;;;;;;42.15;23.20;;;4.90;99.90;;;;;;5017063;28;20172;-90
2021/12/11 01:12:27;;;;;;;42.45;22.77;;;4.90;99.90;;;;;;5009874;28;20206;-90
2021/12/11 01:15:05;;;;;;;39.97;22.67;;;4.90;99.90;;;;;;4999616;28;20207;-92
2021/12/11 01:17:41;;;;;;;45.35;23.48;;;4.90;99.90;;;;;;5003283;28;20704;-91
2021/12/11 01:20:25;;;;;;;43.72;22.33;;;4.90;99.90;;;;;;4998525;28;20215;-89
2021/12/11 01:22:52;;;;;;;38.40;21.40;;;4.90;99.90;;;;;;4999462;28;20183;-92
2021/12/11 01:25:27;;;;;;;38.67;22.40;;;4.90;99.90;;;;;;4998966;28;20203;-89
2021/12/11 01:28:03;;;;;;;46.30;22.30;;;4.90;99.90;;;;;;5016158;28;20159;-91
2021/12/11 01:30:37;;;;;;;38.00;19.33;;;4.90;99.90;;;;;;5016434;28;20655;-90
2021/12/11 01:33:05;;;;;;;32.75;18.65;;;5.00;99.90;;;;;;4998858;28;20219;-89
2021/12/11 01:35:31;;;;;;;35.22;19.25;;;5.00;99.90;;;;;;5015958;28;20660;-92
2021/12/11 01:38:07;;;;;;;31.52;18.48;;;4.90;99.90;;;;;;5016478;28;20683;-91
2021/12/11 01:40:34;;;;;;;33.58;19.67;;;4.90;99.90;;;;;;5014900;28;20293;-91
2021/12/11 01:43:03;;;;;;;40.63;20.80;;;4.90;99.90;;;;;;4998694;28;20258;-90
2021/12/11 01:45:30;;;;;;;38.25;21.42;;;4.90;99.90;;;;;;5026251;28;20250;-89
2021/12/11 01:47:57;;;;;;;38.85;20.88;;;4.90;99.90;;;;;;5018724;28;20214;-89
2021/12/11 01:50:36;;;;;;;34.58;21.55;;;4.90;99.90;;;;;;5018321;28;20260;-88
2021/12/11 01:53:17;;;;;;;39.28;20.52;;;4.90;99.90;;;;;;5018797;28;20251;-92
2021/12/11 01:55:47;;;;;;;35.80;18.98;;;4.90;99.90;;;;;;5033978;28;20225;-90
2021/12/11 01:58:21;;;;;;;32.67;19.08;;;4.90;99.90;;;;;;5018624;28;20230;-90
2021/12/11 02:00:57;;;;;;;30.05;17.17;;;4.90;99.90;;;;;;5038727;28;20225;-92
2021/12/11 02:03:27;;;;;;;32.38;18.60;;;4.90;99.90;;;;;;5018875;28;20224;-90
2021/12/11 02:05:54;;;;;;;28.13;18.55;;;4.90;99.90;;;;;;5018388;28;20198;-91
2021/12/11 02:08:25;;;;;;;30.75;17.40;;;4.90;99.90;;;;;;5035444;28;20178;-92
2021/12/11 02:10:50;;;;;;;28.75;17.25;;;4.90;99.90;;;;;;5017765;28;20218;-92
2021/12/11 02:13:31;;;;;;;32.77;17.63;;;4.90;99.90;;;;;;5034911;28;20171;-90
2021/12/11 02:15:57;;;;;;;28.55;16.45;;;4.90;99.90;;;;;;5035782;28;20236;-89
2021/12/11 02:18:43;;;;;;;28.00;17.67;;;4.90;99.90;;;;;;5035025;28;20257;-89
2021/12/11 02:21:23;;;;;;;33.92;20.77;;;4.90;99.90;;;;;;5017434;28;20545;-91
2021/12/11 02:23:57;;;;;;;41.35;20.85;;;4.90;99.90;;;;;;5017401;28;20162;-89
2021/12/11 02:26:25;;;;;;;33.53;19.88;;;4.90;99.90;;;;;;5017413;28;20299;-90
2021/12/11 02:29:02;;;;;;;30.75;19.40;;;4.90;99.90;;;;;;5034168;28;20175;-90
2021/12/11 02:31:35;;;;;;;31.48;18.15;;;4.90;99.90;;;;;;5035215;28;20285;-91
2021/12/11 02:34:09;;;;;;;36.20;19.42;;;4.90;99.90;;;;;;5017636;28;20257;-91
2021/12/11 02:36:44;;;;;;;45.40;26.27;;;4.90;99.90;;;;;;5017779;28;20209;-90
2021/12/11 02:39:31;;;;;;;37.55;21.75;;;4.90;99.90;;;;;;5017345;28;20642;-90
2021/12/11 02:42:00;;;;;;;34.72;19.65;;;5.00;99.90;;;;;;5017852;28;20812;-89
2021/12/11 02:44:42;;;;;;;32.45;18.85;;;5.00;99.90;;;;;;5017455;28;20586;-91
2021/12/11 02:47:25;;;;;;;29.58;18.08;;;5.00;99.90;;;;;;5017183;28;20182;-89
2021/12/11 02:50:00;;;;;;;33.47;19.15;;;5.00;99.90;;;;;;5017435;28;20190;-89
2021/12/11 02:52:38;;;;;;;31.30;18.45;;;5.00;99.90;;;;;;5034681;28;20196;-89
2021/12/11 02:55:22;;;;;;;37.40;20.50;;;5.00;99.90;;;;;;5017356;28;20229;-90
2021/12/11 02:57:55;;;;;;;37.17;21.92;;;5.00;99.90;;;;;;5034737;28;20165;-92
2021/12/11 03:00:21;;;;;;;34.08;21.10;;;5.00;99.90;;;;;;5022305;28;20234;-90
2021/12/11 03:02:59;;;;;;;37.30;20.60;;;5.00;99.90;;;;;;5032372;28;20651;-92
2021/12/11 03:05:35;;;;;;;37.78;21.48;;;5.00;99.90;;;;;;5017111;28;20565;-92
2021/12/11 03:08:01;;;;;;;35.95;19.65;;;5.10;99.90;;;;;;5016628;28;20174;-89
2021/12/11 03:10:27;;;;;;;35.65;18.63;;;5.00;99.90;;;;;;5017246;28;20223;-92
2021/12/11 03:12:55;;;;;;;35.15;20.90;;;5.10;99.90;;;;;;5016975;28;20318;-89
2021/12/11 03:15:21;;;;;;;31.38;19.48;;;5.10;99.90;;;;;;5016896;28;20264;-92
2021/12/11 03:17:48;;;;;;;34.20;18.92;;;5.10;99.90;;;;;;5016969;28;20179;-90
2021/12/11 03:20:19;;;;;;;32.90;17.98;;;5.10;99.90;;;;;;5034593;28;20651;-92
2021/12/11 03:22:46;;;;;;;30.25;19.05;;;5.10;99.90;;;;;;5017291;28;20181;-91
2021/12/11 03:25:20;;;;;;;36.28;18.55;;;5.10;99.90;;;;;;5017033;28;20234;-89
2021/12/11 03:27:47;;;;;;;32.92;19.52;;;5.10;99.90;;;;;;5016992;28;20247;-91
2021/12/11 03:30:27;;;;;;;30.13;17.25;;;5.10;99.90;;;;;;5017173;28;20660;-89
2021/12/11 03:32:57;;;;;;;35.58;20.02;;;5.00;99.90;;;;;;5034389;28;20539;-90
2021/12/11 03:35:24;;;;;;;30.30;19.48;;;5.00;99.90;;;;;;5034295;28;20600;-91
2021/12/11 03:37:51;;;;;;;32.47;18.75;;;5.00;99.90;;;;;;5016753;28;20170;-89
2021/12/11 03:40:18;;;;;;;30.55;18.10;;;5.00;99.90;;;;;;5016744;28;20214;-92
2021/12/11 03:42:46;;;;;;;34.50;19.42;;;5.00;99.90;;;;;;5016698;28;20175;-91
2021/12/11 03:45:17;;;;;;;36.75;19.63;;;5.00;99.90;;;;;;5037253;28;20237;-89
2021/12/11 03:47:50;;;;;;;33.47;18.15;;;5.00;99.90;;;;;;5050785;28;20166;-92
2021/12/11 03:50:19;;;;;;;35.60;18.65;;;5.00;99.90;;;;;;5020854;28;20732;-90
2021/12/11 03:52:47;;;;;;;30.52;18.90;;;5.00;99.90;;;;;;5038176;28;20171;-89
2021/12/11 03:55:17;;;;;;;33.38;19.42;;;5.00;99.90;;;;;;5037683;28;20202;-90
2021/12/11 03:57:44;;;;;;;36.13;18.60;;;5.00;99.90;;;;;;5037902;28;20167;-91
2021/12/11 04:00:16;;;;;;;33.10;19.23;;;5.00;99.90;;;;;;5037758;28;20202;-92
2021/12/11 04:02:44;;;;;;;39.15;18.83;;;5.00;99.90;;;;;;5020175;28;20204;-90
2021/12/11 04:05:10;;;;;;;37.53;19.60;;;5.00;99.90;;;;;;5037648;28;20217;-92
2021/12/11 04:07:46;;;;;;;31.50;17.88;;;5.00;99.90;;;;;;5019906;28;20201;-91
2021/12/11 04:10:15;;;;;;;42.22;19.90;;;5.00;99.90;;;;;;5037893;28;20209;-92
2021/12/11 04:12:42;;;;;;;39.75;18.65;;;5.00;99.90;;;;;;5020042;28;20175;-89
2021/12/11 04:15:11;;;;;;;36.90;18.60;;;4.90;99.90;;;;;;5019404;28;20244;-90
2021/12/11 04:17:38;;;;;;;33.63;17.77;;;4.90;99.90;;;;;;5020103;28;20210;-89
2021/12/11 04:20:10;;;;;;;35.58;18.05;;;4.90;99.90;;;;;;5053830;28;20264;-92
2021/12/11 04:22:36;;;;;;;35.65;17.48;;;4.90;99.90;;;;;;5040641;28;20209;-89
2021/12/11 04:25:04;;;;;;;37.40;18.73;;;4.90;99.90;;;;;;5030985;28;20599;-91
2021/12/11 04:27:30;;;;;;;37.95;18.30;;;4.90;99.90;;;;;;5019942;28;20188;-91
2021/12/11 04:29:56;;;;;;;29.63;15.97;;;4.90;99.90;;;;;;5020233;28;20211;-89
2021/12/11 04:32:24;;;;;;;41.53;18.83;;;4.90;99.90;;;;;;5020929;28;20175;-91
2021/12/11 04:34:50;;;;;;;39.85;19.30;;;4.90;99.90;;;;;;5019971;28;20198;-89
2021/12/11 04:37:23;;;;;;;38.60;18.67;;;4.90;99.90;;;;;;5019586;28;20273;-89
2021/12/11 04:39:58;;;;;;;38.25;16.80;;;4.90;99.90;;;;;;5037102;28;20274;-89
2021/12/11 04:42:48;;;;;;;40.00;19.52;;;4.90;99.90;;;;;;5019573;28;20210;-92
2021/12/11 04:45:28;;;;;;;43.22;20.23;;;4.90;99.90;;;;;;5036634;28;20280;-90
2021/12/11 04:48:00;;;;;;;41.67;18.35;;;4.90;99.90;;;;;;5019338;28;20173;-89
2021/12/11 04:50:40;;;;;;;38.30;19.20;;;4.90;99.90;;;;;;5019077;28;20690;-90
2021/12/11 04:53:21;;;;;;;40.80;20.38;;;4.90;99.90;;;;;;5019339;28;20205;-93
2021/12/11 04:56:17;;;;;;;41.83;19.50;;;4.90;99.90;;;;;;5019270;28;20265;-92
2021/12/11 04:58:55;;;;;;;39.58;19.38;;;4.90;99.90;;;;;;5036787;28;20178;-92
2021/12/11 05:09:31;;;;;;;41.05;18.55;;;4.90;99.90;;;;;;5037967;28;20632;-90
2021/12/11 05:14:43;;;;;;;43.28;19.25;;;4.90;99.90;;;;;;5052869;28;20171;-92
2021/12/11 05:17:10;;;;;;;48.20;21.33;;;4.90;99.90;;;;;;5058333;28;20174;-88
2021/12/11 05:19:38;;;;;;;46.75;21.08;;;4.90;99.90;;;;;;5039204;28;20185;-90
2021/12/11 05:22:05;;;;;;;44.55;21.27;;;4.90;99.90;;;;;;5037150;28;20206;-90
2021/12/11 05:24:31;;;;;;;55.17;22.40;;;4.90;99.90;;;;;;5040576;28;20171;-91
2021/12/11 05:26:57;;;;;;;46.88;22.95;;;4.90;99.90;;;;;;5024699;28;20188;-90
2021/12/11 05:29:23;;;;;;;45.30;21.52;;;4.90;99.90;;;;;;5044895;28;20186;-91
2021/12/11 05:31:49;;;;;;;45.45;20.80;;;4.90;99.90;;;;;;5025132;28;20209;-90
2021/12/11 05:34:15;;;;;;;48.60;21.40;;;4.90;99.90;;;;;;5037051;28;20178;-91
2021/12/11 05:36:41;;;;;;;50.22;22.85;;;4.90;99.90;;;;;;5018745;28;20206;-92
2021/12/11 05:39:15;;;;;;;39.58;19.52;;;4.90;99.90;;;;;;5035448;28;20185;-92
2021/12/11 05:41:42;;;;;;;56.63;22.40;;;4.90;99.90;;;;;;5018507;28;20354;-89
2021/12/11 05:44:11;;;;;;;51.45;23.92;;;4.90;99.90;;;;;;5018314;28;20178;-90
2021/12/11 05:46:37;;;;;;;48.90;23.02;;;4.90;99.90;;;;;;5017789;28;20238;-91
2021/12/11 05:49:06;;;;;;;51.08;23.17;;;4.90;99.90;;;;;;5018938;28;20635;-90
2021/12/11 05:51:38;;;;;;;51.17;25.92;;;4.90;99.90;;;;;;5018179;28;20221;-91
2021/12/11 05:54:07;;;;;;;49.03;22.85;;;4.90;99.90;;;;;;5018645;28;20519;-90
2021/12/11 05:56:34;;;;;;;46.28;21.92;;;5.00;99.90;;;;;;5018382;28;20220;-89
2021/12/11 05:59:00;;;;;;;54.20;23.38;;;4.90;99.90;;;;;;5018157;28;20683;-89
2021/12/11 06:01:32;;;;;;;55.77;23.80;;;4.90;99.90;;;;;;5035756;28;20218;-92
2021/12/11 06:04:01;;;;;;;57.83;26.15;;;5.00;99.90;;;;;;5018045;28;20198;-89
2021/12/11 06:06:27;;;;;;;56.67;24.38;;;5.00;99.90;;;;;;5017874;28;20217;-89
2021/12/11 06:08:53;;;;;;;52.90;23.35;;;5.00;99.90;;;;;;5017814;28;20178;-89
2021/12/11 06:11:20;;;;;;;60.03;24.10;;;5.00;99.90;;;;;;5020188;28;20213;-92
2021/12/11 06:13:46;;;;;;;54.28;25.30;;;5.00;99.90;;;;;;5034710;28;21036;-92
2021/12/11 06:16:14;;;;;;;64.97;26.35;;;5.00;99.90;;;;;;5017830;28;20574;-91
2021/12/11 06:18:40;;;;;;;56.28;24.95;;;5.00;99.90;;;;;;5018436;28;20205;-91
2021/12/11 06:21:06;;;;;;;56.55;24.50;;;5.10;99.90;;;;;;5022489;28;20806;-91
2021/12/11 06:23:32;;;;;;;55.95;25.65;;;5.10;99.90;;;;;;5040490;28;20171;-90
2021/12/11 06:25:58;;;;;;;60.93;26.10;;;5.10;99.90;;;;;;5017860;28;20209;-91
2021/12/11 06:28:27;;;;;;;55.67;25.38;;;5.10;99.90;;;;;;5017542;28;20414;-90
2021/12/11 06:30:58;;;;;;;59.70;27.20;;;5.10;99.90;;;;;;5017655;28;20301;-91
2021/12/11 06:33:27;;;;;;;51.03;24.73;;;5.10;99.90;;;;;;5016984;28;20257;-91
2021/12/11 06:35:58;;;;;;;53.28;25.90;;;5.10;99.90;;;;;;5032623;28;20230;-92
2021/12/11 06:38:29;;;;;;;58.40;25.70;;;5.10;99.90;;;;;;5030673;28;20171;-92
2021/12/11 06:40:55;;;;;;;51.03;24.77;;;5.10;99.90;;;;;;5030062;28;20297;-89
2021/12/11 06:43:22;;;;;;;79.35;34.25;;;5.20;99.90;;;;;;5037730;28;20640;-90
2021/12/11 06:45:48;;;;;;;102.80;45.05;;;5.10;99.90;;;;;;5024053;28;20246;-92
2021/12/11 06:48:16;;;;;;;94.15;40.00;;;5.10;99.90;;;;;;4993643;28;20171;-91
2021/12/11 06:50:43;;;;;;;68.95;33.70;;;5.10;99.90;;;;;;5010321;28;20203;-92
2021/12/11 06:53:20;;;;;;;59.80;30.38;;;5.20;99.90;;;;;;5011921;28;20321;-91
2021/12/11 06:55:46;;;;;;;62.38;29.35;;;5.20;99.90;;;;;;5012307;28;20671;-91
2021/12/11 06:58:11;;;;;;;57.97;29.70;;;5.20;99.90;;;;;;4995360;28;20189;-90
2021/12/11 07:00:37;;;;;;;63.93;26.30;;;5.20;99.90;;;;;;5011421;28;20195;-91
2021/12/11 07:03:03;;;;;;;66.82;27.70;;;5.20;99.90;;;;;;4995837;28;20841;-92
2021/12/11 07:05:30;;;;;;;62.03;26.83;;;5.20;99.90;;;;;;4995656;28;20273;-91
2021/12/11 07:07:56;;;;;;;56.85;26.58;;;5.20;99.90;;;;;;5026811;28;20405;-91
2021/12/11 07:10:23;;;;;;;58.83;27.10;;;5.20;99.90;;;;;;5008841;28;20215;-90
2021/12/11 07:12:50;;;;;;;56.13;25.98;;;5.20;99.90;;;;;;5021237;28;20440;-91
2021/12/11 07:15:18;;;;;;;84.22;34.03;;;5.20;99.90;;;;;;4999344;28;20282;-90
2021/12/11 07:17:44;;;;;;;82.75;33.10;;;5.20;99.90;;;;;;5014837;28;20194;-89
2021/12/11 07:20:13;;;;;;;56.40;26.47;;;5.20;99.90;;;;;;4997398;28;20676;-90
2021/12/11 07:22:41;;;;;;;62.00;27.17;;;5.20;99.90;;;;;;4997354;28;20988;-90
2021/12/11 07:25:29;;;;;;;66.28;28.50;;;5.20;99.90;;;;;;4998869;28;20739;-90
2021/12/11 07:27:57;;;;;;;49.97;24.13;;;5.30;99.90;;;;;;5015358;28;20695;-89
2021/12/11 07:30:25;;;;;;;59.88;27.23;;;5.30;99.90;;;;;;4998631;28;20199;-90
2021/12/11 07:33:00;;;;;;;68.78;27.95;;;5.30;99.90;;;;;;5012127;28;20183;-92
2021/12/11 07:35:26;;;;;;;64.22;28.83;;;5.30;99.90;;;;;;4994783;28;20210;-91
2021/12/11 07:37:53;;;;;;;67.63;30.15;;;5.30;99.90;;;;;;4995743;28;20672;-90
2021/12/11 07:40:21;;;;;;;87.60;31.77;;;5.30;99.90;;;;;;5007337;28;20237;-90
2021/12/11 07:42:48;;;;;;;65.72;30.90;;;5.30;99.90;;;;;;5034947;28;20207;-91
2021/12/11 07:45:15;;;;;;;65.50;28.85;;;5.30;99.90;;;;;;5026597;28;20565;-91
2021/12/11 07:47:41;;;;;;;63.72;28.90;;;5.30;99.90;;;;;;5030191;28;20186;-90
2021/12/11 07:50:07;;;;;;;81.03;32.03;;;5.30;99.90;;;;;;5020017;28;20212;-90
2021/12/11 07:52:33;;;;;;;68.50;31.70;;;5.30;99.90;;;;;;5034395;28;20186;-91
2021/12/11 07:54:59;;;;;;;65.07;28.50;;;5.30;99.90;;;;;;5035530;28;20231;-89
2021/12/11 07:57:25;;;;;;;69.97;27.07;;;5.40;99.90;;;;;;5036348;28;20731;-89
2021/12/11 07:59:51;;;;;;;68.97;31.30;;;5.30;99.90;;;;;;5037523;28;20420;-93
2021/12/11 08:02:17;;;;;;;58.40;29.03;;;5.30;99.90;;;;;;5018701;28;20214;-89
2021/12/11 08:04:43;;;;;;;65.33;29.73;;;5.30;99.90;;;;;;5025001;28;20191;-90
2021/12/11 08:07:09;;;;;;;68.20;30.37;;;5.30;99.90;;;;;;5037219;28;20390;-90
2021/12/11 08:09:35;;;;;;;66.40;27.60;;;5.30;99.90;;;;;;5016548;28;20397;-89
2021/12/11 08:12:02;;;;;;;64.38;28.17;;;5.30;99.90;;;;;;5027757;28;20205;-90
2021/12/11 08:14:28;;;;;;;62.08;27.77;;;5.30;99.90;;;;;;5014086;28;20182;-88
2021/12/11 08:16:57;;;;;;;68.40;28.07;;;5.30;99.90;;;;;;5015089;28;20194;-89
2021/12/11 08:19:26;;;;;;;69.05;28.27;;;5.30;99.90;;;;;;5016410;28;20391;-92
2021/12/11 08:21:55;;;;;;;73.55;27.38;;;5.30;99.90;;;;;;5026283;28;20223;-90
2021/12/11 08:24:23;;;;;;;79.75;28.95;;;5.30;99.90;;;;;;5016682;28;20187;-90
2021/12/11 08:26:51;;;;;;;66.80;30.08;;;5.30;99.90;;;;;;5017466;28;20206;-92
2021/12/11 08:29:19;;;;;;;67.75;28.67;;;5.30;99.90;;;;;;5036006;28;20203;-89
2021/12/11 08:31:50;;;;;;;78.45;32.20;;;5.30;99.90;;;;;;5017990;28;20594;-91
2021/12/11 08:34:16;;;;;;;69.45;29.15;;;5.30;99.90;;;;;;5017726;28;20187;-89
2021/12/11 08:36:43;;;;;;;60.55;29.13;;;5.30;99.90;;;;;;5018697;28;20210;-90
2021/12/11 08:39:11;;;;;;;63.25;27.83;;;5.30;99.90;;;;;;5020024;28;20662;-89
2021/12/11 08:41:38;;;;;;;68.05;26.90;;;5.30;99.90;;;;;;5042104;28;20561;-89
2021/12/11 08:44:09;;;;;;;76.38;31.95;;;5.30;99.90;;;;;;5038485;28;20206;-92
2021/12/11 08:46:37;;;;;;;72.60;29.40;;;5.30;99.90;;;;;;5035214;28;20241;-89
2021/12/11 08:49:08;;;;;;;67.32;29.00;;;5.40;99.90;;;;;;5036390;28;20183;-89
2021/12/11 08:51:43;;;;;;;70.88;28.67;;;5.40;99.90;;;;;;5022178;28;20572;-89
2021/12/11 08:54:11;;;;;;;63.08;30.63;;;5.40;99.90;;;;;;5035064;28;20182;-92
2021/12/11 08:56:39;;;;;;;72.03;30.77;;;5.40;99.90;;;;;;5033299;28;20214;-91
2021/12/11 08:59:12;;;;;;;63.45;28.27;;;5.40;99.90;;;;;;5027195;28;20273;-92
2021/12/11 09:01:52;;;;;;;66.80;28.55;;;5.50;99.90;;;;;;5013331;28;20218;-90
2021/12/11 09:04:29;;;;;;;70.93;27.73;;;5.50;99.90;;;;;;5018775;28;20182;-90
2021/12/11 09:07:25;;;;;;;76.38;29.08;;;5.50;99.90;;;;;;5017291;28;20186;-90
2021/12/11 09:10:01;;;;;;;69.32;27.60;;;5.50;99.90;;;;;;4991735;28;20585;-89
2021/12/11 09:12:51;;;;;;;59.97;26.48;;;5.50;99.90;;;;;;5032393;28;20194;-92
2021/12/11 09:15:37;;;;;;;51.50;24.88;;;5.50;99.90;;;;;;5013373;28;20210;-90
2021/12/11 09:18:18;;;;;;;70.50;27.67;;;5.50;99.90;;;;;;5029127;28;20245;-93
2021/12/11 09:20:54;;;;;;;67.10;27.05;;;5.50;99.90;;;;;;5014732;28;20683;-92
2021/12/11 09:23:44;;;;;;;55.72;25.67;;;5.50;99.90;;;;;;5017458;28;20182;-90
2021/12/11 09:26:14;;;;;;;59.92;24.05;;;5.60;99.90;;;;;;5031242;28;20371;-90
2021/12/11 09:29:02;;;;;;;58.65;26.55;;;5.60;99.90;;;;;;5017005;28;20182;-93
2021/12/11 09:31:28;;;;;;;60.70;25.70;;;5.60;99.90;;;;;;5033857;28;20562;-92
2021/12/11 09:33:59;;;;;;;61.90;26.93;;;5.70;99.90;;;;;;5019290;28;20186;-91
2021/12/11 09:36:32;;;;;;;60.28;25.35;;;5.70;99.90;;;;;;5017177;28;20207;-92
2021/12/11 09:39:11;;;;;;;72.25;27.73;;;5.70;99.90;;;;;;5034634;28;20182;-92
2021/12/11 09:41:37;;;;;;;56.08;25.35;;;5.70;99.90;;;;;;5022577;28;20226;-92
2021/12/11 09:44:17;;;;;;;60.63;26.33;;;5.70;99.90;;;;;;5016106;28;20201;-90
2021/12/11 09:46:51;;;;;;;63.83;24.85;;;5.80;99.90;;;;;;5025110;28;20231;-93
2021/12/11 09:49:22;;;;;;;62.15;26.60;;;5.80;99.90;;;;;;5017975;28;20224;-93
2021/12/11 09:51:59;;;;;;;58.78;27.30;;;5.80;99.90;;;;;;5014621;28;20203;-92
2021/12/11 09:54:25;;;;;;;56.83;24.98;;;5.80;99.90;;;;;;5015416;28;20547;-93
2021/12/11 09:57:00;;;;;;;55.53;25.23;;;5.80;99.90;;;;;;5014957;28;20214;-90
2021/12/11 09:59:30;;;;;;;53.58;25.05;;;5.80;99.90;;;;;;5015925;28;20468;-91
2021/12/11 10:02:04;;;;;;;58.92;27.52;;;5.80;99.90;;;;;;5020600;28;20263;-92
2021/12/11 10:04:36;;;;;;;49.88;25.85;;;5.80;99.90;;;;;;5012156;28;20182;-92
2021/12/11 10:09:45;;;;;;;50.90;25.58;;;5.90;99.90;;;;;;5030614;28;20427;-91
2021/12/11 10:12:17;;;;;;;59.00;26.13;;;5.90;99.90;;;;;;5024668;28;20189;-92
2021/12/11 10:15:00;;;;;;;53.00;25.35;;;5.90;99.90;;;;;;5005006;28;20663;-92
2021/12/11 10:17:39;;;;;;;49.30;22.95;;;5.90;99.90;;;;;;5012572;28;20182;-91
2021/12/11 10:20:10;;;;;;;51.00;24.00;;;6.00;99.90;;;;;;5063911;28;20191;-91
2021/12/11 10:22:38;;;;;;;48.15;22.83;;;6.00;99.90;;;;;;5015175;28;20772;-89
2021/12/11 10:25:11;;;;;;;48.10;24.02;;;6.00;99.90;;;;;;5012931;28;20699;-91
2021/12/11 10:27:38;;;;;;;45.45;23.25;;;6.00;99.90;;;;;;5013030;28;20213;-91
2021/12/11 10:30:07;;;;;;;43.08;22.67;;;6.10;99.90;;;;;;5028607;28;20210;-91
2021/12/11 10:32:34;;;;;;;51.33;23.67;;;6.10;99.90;;;;;;5029162;28;20182;-91
2021/12/11 10:35:11;;;;;;;49.75;23.92;;;6.10;99.90;;;;;;5010636;28;20560;-92
2021/12/11 10:37:38;;;;;;;46.58;22.23;;;6.10;99.90;;;;;;5043280;28;20178;-90
2021/12/11 10:40:26;;;;;;;46.75;21.50;;;6.10;99.90;;;;;;5026066;28;20202;-92
2021/12/11 10:42:57;;;;;;;43.05;22.20;;;6.10;99.90;;;;;;5015077;28;20250;-91
2021/12/11 10:45:25;;;;;;;37.78;18.95;;;6.10;99.90;;;;;;5027877;28;20342;-92
2021/12/11 10:47:55;;;;;;;39.17;20.67;;;6.00;99.90;;;;;;5028985;28;20269;-91
2021/12/11 10:50:35;;;;;;;52.15;22.77;;;6.00;99.90;;;;;;5030070;28;20281;-91
2021/12/11 10:53:02;;;;;;;46.53;22.90;;;6.00;99.90;;;;;;5012874;28;20181;-91
2021/12/11 10:55:32;;;;;;;35.22;20.45;;;6.00;99.90;;;;;;5032874;28;20244;-92
2021/12/11 10:58:03;;;;;;;44.05;24.50;;;6.10;99.90;;;;;;5049441;28;20202;-90
2021/12/11 11:00:42;;;;;;;38.83;21.77;;;6.10;99.90;;;;;;5013748;28;20198;-92
2021/12/11 11:03:08;;;;;;;37.03;19.90;;;6.10;99.90;;;;;;4997389;28;20560;-92
2021/12/11 11:05:35;;;;;;;36.20;20.43;;;6.10;99.90;;;;;;5027616;28;20209;-91
2021/12/11 11:08:02;;;;;;;40.92;20.88;;;6.10;99.90;;;;;;5028162;28;20428;-92
2021/12/11 11:10:32;;;;;;;41.60;21.10;;;6.10;99.90;;;;;;4994782;28;20286;-92
2021/12/11 11:12:59;;;;;;;42.33;22.10;;;6.10;99.90;;;;;;5031209;28;20167;-91
2021/12/11 11:15:27;;;;;;;39.25;21.60;;;6.20;99.90;;;;;;5042345;28;20222;-91
2021/12/11 11:17:54;;;;;;;38.13;19.80;;;6.20;99.90;;;;;;4995625;28;20184;-90
2021/12/11 11:20:26;;;;;;;36.38;20.48;;;6.20;99.90;;;;;;5041395;28;20248;-92
2021/12/11 11:22:52;;;;;;;41.08;22.83;;;6.20;99.90;;;;;;5016059;28;20198;-91
2021/12/11 11:25:20;;;;;;;38.22;21.45;;;6.20;99.90;;;;;;5019882;28;20199;-92
2021/12/11 11:27:48;;;;;;;40.97;21.35;;;6.20;99.90;;;;;;5034068;28;20179;-90
2021/12/11 11:30:20;;;;;;;38.70;21.05;;;6.20;99.90;;;;;;5016824;28;20284;-89
2021/12/11 11:32:47;;;;;;;46.70;21.48;;;6.20;99.90;;;;;;5017296;28;20170;-90
2021/12/11 11:35:17;;;;;;;37.10;20.00;;;6.20;99.90;;;;;;5014832;28;20211;-92
2021/12/11 11:37:44;;;;;;;39.15;22.10;;;6.20;99.90;;;;;;5015323;28;20187;-91
2021/12/11 11:40:18;;;;;;;46.53;23.55;;;6.20;99.90;;;;;;5014335;28;20290;-91
2021/12/11 11:42:44;;;;;;;44.20;21.48;;;6.20;99.90;;;;;;5046312;28;20209;-90
2021/12/11 11:45:12;;;;;;;36.40;21.27;;;6.10;99.90;;;;;;5016640;28;20230;-91
2021/12/11 11:47:39;;;;;;;43.88;21.50;;;6.10;99.90;;;;;;5016860;28;20424;-92
2021/12/11 11:50:10;;;;;;;42.90;21.52;;;6.10;99.90;;;;;;5032028;28;20285;-90
2021/12/11 11:52:36;;;;;;;35.80;20.55;;;6.10;99.90;;;;;;5027877;28;20222;-92
2021/12/11 11:55:07;;;;;;;37.33;20.90;;;6.10;99.90;;;;;;5049053;28;20206;-90
2021/12/11 11:57:37;;;;;;;33.88;17.67;;;6.10;99.90;;;;;;5047837;28;20194;-90
2021/12/11 12:00:13;;;;;;;38.97;22.20;;;6.10;99.90;;;;;;5015952;28;20212;-91
2021/12/11 12:02:39;;;;;;;32.22;16.88;;;6.10;99.90;;;;;;5016221;28;20674;-91
2021/12/11 12:05:06;;;;;;;37.22;19.88;;;6.10;99.90;;;;;;5035139;28;20655;-91
2021/12/11 12:07:33;;;;;;;42.38;22.85;;;6.10;99.90;;;;;;5018333;28;20270;-91
2021/12/11 12:10:05;;;;;;;36.92;21.00;;;6.10;99.90;;;;;;5029321;28;20206;-92
2021/12/11 12:12:31;;;;;;;33.92;19.88;;;6.10;99.90;;;;;;5016490;28;20688;-91
2021/12/11 12:14:58;;;;;;;34.80;20.93;;;6.10;99.90;;;;;;5022839;28;20335;-91
2021/12/11 12:17:27;;;;;;;37.70;19.83;;;6.10;99.90;;;;;;5041913;28;20394;-91
2021/12/11 12:19:54;;;;;;;34.83;21.67;;;6.00;99.90;;;;;;5036988;28;20210;-91
2021/12/11 12:22:21;;;;;;;37.35;21.35;;;6.00;99.90;;;;;;5019780;28;20238;-90
2021/12/11 12:24:50;;;;;;;39.00;20.15;;;6.00;99.90;;;;;;5018661;28;20190;-92
2021/12/11 12:27:19;;;;;;;38.92;21.42;;;6.00;99.90;;;;;;5020027;28;20187;-91
2021/12/11 12:29:46;;;;;;;41.40;21.70;;;6.00;99.90;;;;;;5018333;28;20232;-91
2021/12/11 12:32:21;;;;;;;36.88;20.42;;;6.00;99.90;;;;;;5019607;28;20694;-91
2021/12/11 12:34:48;;;;;;;38.85;21.02;;;6.00;99.90;;;;;;5014306;28;20193;-90
2021/12/11 12:37:14;;;;;;;39.97;22.23;;;6.00;99.90;;;;;;5052781;28;20190;-91
2021/12/11 12:39:44;;;;;;;38.13;20.15;;;6.00;99.90;;;;;;5019388;28;20186;-90
2021/12/11 12:42:32;;;;;;;39.38;21.38;;;6.00;99.90;;;;;;5019793;28;20302;-92
2021/12/11 12:45:20;;;;;;;38.97;21.70;;;6.00;99.90;;;;;;5023615;28;20244;-92
2021/12/11 12:47:56;;;;;;;38.03;20.48;;;6.00;99.90;;;;;;5013779;28;20912;-90
2021/12/11 12:50:32;;;;;;;39.05;21.02;;;6.00;99.90;;;;;;5036842;28;20667;-92
2021/12/11 12:52:59;;;;;;;34.28;19.38;;;6.00;99.90;;;;;;5018644;28;20194;-90
2021/12/11 12:55:55;;;;;;;38.97;23.13;;;6.00;99.90;;;;;;5019518;28;20217;-92
2021/12/11 12:58:27;;;;;;;36.55;21.42;;;6.00;99.90;;;;;;5037084;28;20643;-91
2021/12/11 13:01:01;;;;;;;40.92;21.55;;;6.00;99.90;;;;;;5037106;28;20218;-90
2021/12/11 13:03:30;;;;;;;42.20;21.20;;;6.00;99.90;;;;;;5040291;28;20224;-88
2021/12/11 13:06:05;;;;;;;41.58;21.63;;;6.00;99.90;;;;;;5017837;28;20202;-90
2021/12/11 13:08:57;;;;;;;41.35;20.58;;;6.00;99.90;;;;;;5022227;28;20183;-91